Time;durP1;ratioP1;P1;durP2;ratioP2;P2;SDS_P1;SDS_P2;PMS_P1;PMS_P2;Temp;Humidity;BMP_temperature;BMP_pressure;BME280_temperature;BME280_humidity;BME280_pressure;Samples;Min_cycle;Max_cycle;Signal;HPM_P1;HPM_P2
2022/10/13 00:01:10;;;;;;;;;;;14.10;99.90;;;;;;5074583;28;19908;-78
2022/10/13 00:03:37;;;;;;;;;;;14.00;99.90;;;;;;5074910;28;19905;-78
2022/10/13 00:06:04;;;;;;;;;;;14.00;99.90;;;;;;5074767;28;19904;-79
2022/10/13 00:08:29;;;;;;;;;;;14.00;99.90;;;;;;5056479;28;19934;-78
2022/10/13 00:10:55;;;;;;;;;;;14.00;99.90;;;;;;5056424;28;20426;-78
2022/10/13 00:13:20;;;;;;;;;;;14.00;99.90;;;;;;5074967;28;19908;-78
2022/10/13 00:15:46;;;;;;;;;;;14.00;99.90;;;;;;5074431;28;19995;-79
2022/10/13 00:18:12;;;;;;;;;;;14.00;99.90;;;;;;5074521;28;19904;-78
2022/10/13 00:20:45;;;;;;;;;;;13.90;99.90;;;;;;5074215;28;19954;-78
2022/10/13 00:23:12;;;;;;;;;;;14.00;99.90;;;;;;5074545;28;20356;-79
2022/10/13 00:25:42;;;;;;;;;;;13.90;99.90;;;;;;5074163;28;19904;-79
2022/10/13 00:28:07;;;;;;;;;;;14.00;99.90;;;;;;5073872;28;19904;-78
2022/10/13 00:30:34;;;;;;;;;;;13.90;99.90;;;;;;5074351;28;19920;-78
2022/10/13 00:32:59;;;;;;;;;;;14.00;99.90;;;;;;5074076;28;20365;-78
2022/10/13 00:35:25;;;;;;;;;;;13.90;99.90;;;;;;5056203;28;19911;-79
2022/10/13 00:37:52;;;;;;;;;;;14.00;99.90;;;;;;5074564;28;20356;-79
2022/10/13 00:40:17;;;;;;;;;;;13.90;99.90;;;;;;5074225;28;19910;-78
2022/10/13 00:42:43;;;;;;;;;;;13.90;99.90;;;;;;5055994;28;19987;-78
2022/10/13 00:45:11;;;;;;;;;;;13.90;99.90;;;;;;5073913;28;19904;-79
2022/10/13 00:47:41;;;;;;;;;;;14.00;99.90;;;;;;5074251;28;19905;-78
2022/10/13 00:50:09;;;;;;;;;;;14.00;99.90;;;;;;5073748;28;20414;-77
2022/10/13 00:52:35;;;;;;;;;;;13.90;99.90;;;;;;5074391;28;19904;-78
2022/10/13 00:55:01;;;;;;;;;;;13.90;99.90;;;;;;5073751;28;20376;-79
2022/10/13 00:57:27;;;;;;;;;;;13.90;99.90;;;;;;5073938;28;19904;-77
2022/10/13 00:59:53;;;;;;;;;;;13.90;99.90;;;;;;5073976;28;19953;-78
2022/10/13 01:02:18;;;;;;;;;;;14.00;99.90;;;;;;5073791;28;19951;-78
2022/10/13 01:04:45;;;;;;;;;;;13.90;99.90;;;;;;5073776;28;19911;-79
2022/10/13 01:07:13;;;;;;;;;;;13.90;99.90;;;;;;5073701;28;19916;-78
2022/10/13 01:09:41;;;;;;;;;;;13.90;99.90;;;;;;5073921;28;19904;-78
2022/10/13 01:12:07;;;;;;;;;;;13.90;99.90;;;;;;5073659;28;19904;-77
2022/10/13 01:14:32;;;;;;;;;;;13.90;99.90;;;;;;5073729;28;20352;-78
2022/10/13 01:17:10;;;;;;;;;;;14.00;99.90;;;;;;5074372;28;19955;-78
2022/10/13 01:19:44;;;;;;;;;;;13.90;99.90;;;;;;5074307;28;19905;-78
2022/10/13 01:22:29;;;;;;;;;;;13.80;99.90;;;;;;5056192;28;20014;-79
2022/10/13 01:24:54;;;;;;;;;;;13.70;99.90;;;;;;5073730;28;20268;-80
2022/10/13 01:27:22;;;;;;;;;;;13.80;99.90;;;;;;5073482;28;19911;-79
2022/10/13 01:30:03;;;;;;;;;;;13.80;99.90;;;;;;5073032;28;19912;-80
2022/10/13 01:32:29;;;;;;;;;;;13.80;99.90;;;;;;5073573;28;19927;-79
2022/10/13 01:34:58;;;;;;;;;;;13.80;99.90;;;;;;5073516;28;20369;-80
2022/10/13 01:37:36;;;;;;;;;;;13.80;99.90;;;;;;5073418;28;20000;-79
2022/10/13 01:40:10;;;;;;;;;;;13.80;99.90;;;;;;5073751;28;20364;-78
2022/10/13 01:42:42;;;;;;;;;;;13.80;99.90;;;;;;5073711;28;20375;-78
2022/10/13 01:45:10;;;;;;;;;;;13.90;99.90;;;;;;5073591;28;19908;-80
2022/10/13 01:47:35;;;;;;;;;;;13.90;99.90;;;;;;5073680;28;19908;-79
2022/10/13 01:50:01;;;;;;;;;;;13.80;99.90;;;;;;5073340;28;19969;-79
2022/10/13 01:52:31;;;;;;;;;;;13.90;99.90;;;;;;5073878;28;19904;-80
2022/10/13 01:54:56;;;;;;;;;;;13.80;99.90;;;;;;5055439;28;19958;-79
2022/10/13 01:57:32;;;;;;;;;;;13.90;99.90;;;;;;5073470;28;19947;-80
2022/10/13 01:59:59;;;;;;;;;;;13.90;99.90;;;;;;5073203;28;19904;-79
2022/10/13 02:02:36;;;;;;;;;;;13.90;99.90;;;;;;5073691;28;20345;-79
2022/10/13 02:05:13;;;;;;;;;;;13.90;99.90;;;;;;5073240;28;20315;-80
2022/10/13 02:07:44;;;;;;;;;;;13.90;99.90;;;;;;5073745;28;19958;-79
2022/10/13 02:10:27;;;;;;;;;;;14.00;99.90;;;;;;5073683;28;19940;-78
2022/10/13 02:12:57;;;;;;;;;;;13.90;99.90;;;;;;5076985;28;20367;-79
2022/10/13 02:15:24;;;;;;;;;;;13.80;99.90;;;;;;5077002;28;19905;-78
2022/10/13 02:17:50;;;;;;;;;;;13.80;99.90;;;;;;5076547;28;20331;-79
2022/10/13 02:20:18;;;;;;;;;;;13.90;99.90;;;;;;5076885;28;19908;-78
2022/10/13 02:22:45;;;;;;;;;;;14.00;99.90;;;;;;5076463;28;19905;-79
2022/10/13 02:25:11;;;;;;;;;;;13.90;99.90;;;;;;5076772;28;19940;-77
2022/10/13 02:27:36;;;;;;;;;;;13.90;99.90;;;;;;5076408;28;19927;-79
2022/10/13 02:30:02;;;;;;;;;;;13.90;99.90;;;;;;5075830;28;19917;-79
2022/10/13 02:32:30;;;;;;;;;;;13.90;99.90;;;;;;5076331;28;20502;-79
2022/10/13 02:34:56;;;;;;;;;;;14.00;99.90;;;;;;5076311;28;19905;-78
2022/10/13 02:37:24;;;;;;;;;;;13.90;99.90;;;;;;5076805;28;19910;-80
2022/10/13 02:39:49;;;;;;;;;;;13.90;99.90;;;;;;5076314;28;19904;-80
2022/10/13 02:42:15;;;;;;;;;;;14.00;99.90;;;;;;5076388;28;19950;-79
2022/10/13 02:44:40;;;;;;;;;;;13.90;99.90;;;;;;5076091;28;19908;-79
2022/10/13 02:47:06;;;;;;;;;;;14.00;99.90;;;;;;5076195;28;20387;-77
2022/10/13 02:49:31;;;;;;;;;;;14.00;99.90;;;;;;5076092;28;19905;-78
2022/10/13 02:51:57;;;;;;;;;;;13.90;99.90;;;;;;5076288;28;20046;-79
2022/10/13 02:54:22;;;;;;;;;;;13.90;99.90;;;;;;5075955;28;20353;-81
2022/10/13 02:56:48;;;;;;;;;;;13.90;99.90;;;;;;5076545;28;20482;-80
2022/10/13 02:59:13;;;;;;;;;;;13.90;99.90;;;;;;5075938;28;19912;-77
2022/10/13 03:01:40;;;;;;;;;;;13.90;99.90;;;;;;5057768;28;20284;-79
2022/10/13 03:04:07;;;;;;;;;;;13.90;99.90;;;;;;5075735;28;19904;-78
2022/10/13 03:06:32;;;;;;;;;;;13.90;99.90;;;;;;5076082;28;19999;-80
2022/10/13 03:08:58;;;;;;;;;;;13.90;99.90;;;;;;5076014;28;19955;-79
2022/10/13 03:11:23;;;;;;;;;;;13.90;99.90;;;;;;5075926;28;19908;-80
2022/10/13 03:13:49;;;;;;;;;;;13.90;99.90;;;;;;5075833;28;19905;-78
2022/10/13 03:16:14;;;;;;;;;;;13.80;99.90;;;;;;5057558;28;19949;-79
2022/10/13 03:18:40;;;;;;;;;;;13.90;99.90;;;;;;5075808;28;19983;-79
2022/10/13 03:21:05;;;;;;;;;;;13.90;99.90;;;;;;5075342;28;19953;-79
2022/10/13 03:23:31;;;;;;;;;;;13.90;99.90;;;;;;5076016;28;19915;-77
2022/10/13 03:25:57;;;;;;;;;;;13.90;99.90;;;;;;5075337;28;19905;-79
2022/10/13 03:28:23;;;;;;;;;;;13.90;99.90;;;;;;5074840;28;20372;-79
2022/10/13 03:30:49;;;;;;;;;;;14.00;99.90;;;;;;5075773;28;19995;-80
2022/10/13 03:33:14;;;;;;;;;;;14.00;99.90;;;;;;5075507;28;20352;-78
2022/10/13 03:35:40;;;;;;;;;;;14.00;99.90;;;;;;5075340;28;19912;-79
2022/10/13 03:38:06;;;;;;;;;;;14.00;99.90;;;;;;5075076;28;19954;-79
2022/10/13 03:40:31;;;;;;;;;;;14.00;99.90;;;;;;5074922;28;19911;-77
2022/10/13 03:42:57;;;;;;;;;;;13.90;99.90;;;;;;5074963;28;19948;-77
2022/10/13 03:45:22;;;;;;;;;;;13.90;99.90;;;;;;5074923;28;19932;-79
2022/10/13 03:47:48;;;;;;;;;;;13.90;99.90;;;;;;5075195;28;19947;-80
2022/10/13 03:50:13;;;;;;;;;;;13.90;99.90;;;;;;5075029;28;19909;-80
2022/10/13 03:52:39;;;;;;;;;;;13.80;99.90;;;;;;5074785;28;19912;-79
2022/10/13 03:55:05;;;;;;;;;;;13.90;99.90;;;;;;5075096;28;20276;-78
2022/10/13 03:57:30;;;;;;;;;;;13.90;99.90;;;;;;5074760;28;19916;-79
2022/10/13 03:59:56;;;;;;;;;;;13.90;99.90;;;;;;5074793;28;19939;-80
2022/10/13 04:02:22;;;;;;;;;;;13.80;99.90;;;;;;5074616;28;20321;-79
2022/10/13 04:04:47;;;;;;;;;;;13.70;99.90;;;;;;5075016;28;19904;-78
2022/10/13 04:07:13;;;;;;;;;;;13.80;99.90;;;;;;5074447;28;19905;-79
2022/10/13 04:09:39;;;;;;;;;;;13.70;99.90;;;;;;5074736;28;19905;-79
2022/10/13 04:12:04;;;;;;;;;;;13.80;99.90;;;;;;5056833;28;19908;-75
2022/10/13 04:14:30;;;;;;;;;;;13.80;99.90;;;;;;5074852;28;19905;-78
2022/10/13 04:16:56;;;;;;;;;;;13.80;99.90;;;;;;5075214;28;19904;-79
2022/10/13 04:19:21;;;;;;;;;;;13.80;99.90;;;;;;5075021;28;19912;-79
2022/10/13 04:21:47;;;;;;;;;;;13.80;99.90;;;;;;5074244;28;19904;-79
2022/10/13 04:24:12;;;;;;;;;;;13.80;99.90;;;;;;5056149;28;19904;-80
2022/10/13 04:26:38;;;;;;;;;;;13.80;99.90;;;;;;5056291;28;19912;-78
2022/10/13 04:29:04;;;;;;;;;;;13.80;99.90;;;;;;5073894;28;19917;-77
2022/10/13 04:31:30;;;;;;;;;;;13.80;99.90;;;;;;5074202;28;20011;-78
2022/10/13 04:33:56;;;;;;;;;;;13.80;99.90;;;;;;5073938;28;20349;-79
2022/10/13 04:36:21;;;;;;;;;;;13.90;99.90;;;;;;5074399;28;19910;-79
2022/10/13 04:38:47;;;;;;;;;;;13.90;99.90;;;;;;5074048;28;19911;-78
2022/10/13 04:41:13;;;;;;;;;;;13.90;99.90;;;;;;5056179;28;19995;-78
2022/10/13 04:43:39;;;;;;;;;;;13.90;99.90;;;;;;5074036;28;19912;-79
2022/10/13 04:46:14;;;;;;;;;;;13.90;99.90;;;;;;5073994;28;19904;-78
2022/10/13 04:48:40;;;;;;;;;;;13.90;99.90;;;;;;5073935;28;20360;-78
2022/10/13 04:51:07;;;;;;;;;;;14.00;99.90;;;;;;5074128;28;19962;-77
2022/10/13 04:53:33;;;;;;;;;;;14.00;99.90;;;;;;5056133;28;19957;-79
2022/10/13 04:56:00;;;;;;;;;;;14.00;99.90;;;;;;5074153;28;19904;-79
2022/10/13 04:58:25;;;;;;;;;;;14.00;99.90;;;;;;5055769;28;19904;-79
2022/10/13 05:00:51;;;;;;;;;;;14.00;99.90;;;;;;5074143;28;19965;-78
2022/10/13 05:03:16;;;;;;;;;;;14.10;99.90;;;;;;5073708;28;20291;-78
2022/10/13 05:05:42;;;;;;;;;;;14.10;99.90;;;;;;5073776;28;19983;-79
2022/10/13 05:08:07;;;;;;;;;;;14.10;99.90;;;;;;5074326;28;19904;-79
2022/10/13 05:10:33;;;;;;;;;;;14.10;99.90;;;;;;5073671;28;19908;-79
2022/10/13 05:12:58;;;;;;;;;;;14.10;99.90;;;;;;5055810;28;19905;-79
2022/10/13 05:15:24;;;;;;;;;;;14.10;99.90;;;;;;5073649;28;19991;-79
2022/10/13 05:17:49;;;;;;;;;;;14.10;99.90;;;;;;5073992;28;19905;-79
2022/10/13 05:20:16;;;;;;;;;;;14.10;99.90;;;;;;5073739;28;20292;-77
2022/10/13 05:22:42;;;;;;;;;;;14.10;99.90;;;;;;5073917;28;19905;-80
2022/10/13 05:25:07;;;;;;;;;;;14.10;99.90;;;;;;5073576;28;19904;-79
2022/10/13 05:27:33;;;;;;;;;;;14.20;99.90;;;;;;5074128;28;19947;-77
2022/10/13 05:29:58;;;;;;;;;;;14.30;99.90;;;;;;5072961;28;20295;-79
2022/10/13 05:32:24;;;;;;;;;;;14.30;99.90;;;;;;5073882;28;19957;-78
2022/10/13 05:34:49;;;;;;;;;;;14.30;99.90;;;;;;5073787;28;19904;-78
2022/10/13 05:37:18;;;;;;;;;;;14.30;99.90;;;;;;5074028;28;20364;-77
2022/10/13 05:39:44;;;;;;;;;;;14.30;99.90;;;;;;5073345;28;19911;-78
2022/10/13 05:42:09;;;;;;;;;;;14.40;99.90;;;;;;5055569;28;20360;-77
2022/10/13 05:44:36;;;;;;;;;;;14.40;99.90;;;;;;5073418;28;19904;-78
2022/10/13 05:47:02;;;;;;;;;;;14.40;99.90;;;;;;5076912;28;20347;-79
2022/10/13 05:49:28;;;;;;;;;;;14.50;99.90;;;;;;5077071;28;19904;-78
2022/10/13 05:51:55;;;;;;;;;;;14.50;99.90;;;;;;5077030;28;19915;-79
2022/10/13 05:54:23;;;;;;;;;;;14.60;99.90;;;;;;5077030;28;19911;-78
2022/10/13 05:56:55;;;;;;;;;;;14.60;99.90;;;;;;5077278;28;20272;-78
2022/10/13 05:59:22;;;;;;;;;;;14.60;99.90;;;;;;5076901;28;19905;-78
2022/10/13 06:01:48;;;;;;;;;;;14.70;99.90;;;;;;5059483;28;19958;-79
2022/10/13 06:04:16;;;;;;;;;;;14.70;99.90;;;;;;5077304;28;19905;-78
2022/10/13 06:06:41;;;;;;;;;;;14.80;99.90;;;;;;5077076;28;19915;-79
2022/10/13 06:09:07;;;;;;;;;;;14.70;99.90;;;;;;5076836;28;20285;-78
2022/10/13 06:11:33;;;;;;;;;;;14.80;99.90;;;;;;5076845;28;20379;-78
2022/10/13 06:13:58;;;;;;;;;;;14.70;99.90;;;;;;5076691;28;19905;-78
2022/10/13 06:16:24;;;;;;;;;;;14.80;99.90;;;;;;5077337;28;19905;-77
2022/10/13 06:18:49;;;;;;;;;;;14.80;99.90;;;;;;5076992;28;19904;-77
2022/10/13 06:21:16;;;;;;;;;;;14.80;99.90;;;;;;5076661;28;19905;-78
2022/10/13 06:23:41;;;;;;;;;;;14.80;99.90;;;;;;5076731;28;20379;-78
2022/10/13 06:26:07;;;;;;;;;;;14.80;99.90;;;;;;5076530;28;19904;-77
2022/10/13 06:28:33;;;;;;;;;;;14.80;99.90;;;;;;5076372;28;19987;-79
2022/10/13 06:30:59;;;;;;;;;;;14.80;99.90;;;;;;5077013;28;19959;-80
2022/10/13 06:33:24;;;;;;;;;;;14.80;99.90;;;;;;5076655;28;19905;-80
2022/10/13 06:35:51;;;;;;;;;;;14.80;99.90;;;;;;5076349;28;19910;-79
2022/10/13 06:38:17;;;;;;;;;;;14.90;99.90;;;;;;5076558;28;19932;-80
2022/10/13 06:40:42;;;;;;;;;;;14.90;99.90;;;;;;5076191;28;19912;-80
2022/10/13 06:43:08;;;;;;;;;;;14.90;99.90;;;;;;5076182;28;19930;-78
2022/10/13 06:45:34;;;;;;;;;;;14.90;99.90;;;;;;5076818;28;19905;-79
2022/10/13 06:47:59;;;;;;;;;;;14.90;99.90;;;;;;5076363;28;20049;-79
2022/10/13 06:50:25;;;;;;;;;;;14.90;99.90;;;;;;5074712;28;19961;-78
2022/10/13 06:52:50;;;;;;;;;;;14.90;99.90;;;;;;5076008;28;19919;-76
2022/10/13 06:55:16;;;;;;;;;;;15.00;99.90;;;;;;5074840;28;19909;-79
2022/10/13 06:57:41;;;;;;;;;;;15.00;99.90;;;;;;5075775;28;19908;-77
2022/10/13 07:00:07;;;;;;;;;;;15.00;99.90;;;;;;5058121;28;19908;-77
2022/10/13 07:02:33;;;;;;;;;;;15.00;99.90;;;;;;5057856;28;20318;-77
2022/10/13 07:04:59;;;;;;;;;;;15.10;99.90;;;;;;5076419;28;19904;-81
2022/10/13 07:07:30;;;;;;;;;;;15.10;99.90;;;;;;5055765;28;19909;-77
2022/10/13 07:09:56;;;;;;;;;;;15.10;99.90;;;;;;5054790;28;19919;-77
2022/10/13 07:12:21;;;;;;;;;;;15.10;99.90;;;;;;5072517;28;19987;-76
2022/10/13 07:14:47;;;;;;;;;;;15.20;99.90;;;;;;5075118;28;19909;-76
2022/10/13 07:17:13;;;;;;;;;;;15.20;99.90;;;;;;5075527;28;19904;-75
2022/10/13 07:19:38;;;;;;;;;;;15.20;99.90;;;;;;5075591;28;19995;-78
2022/10/13 07:22:04;;;;;;;;;;;15.20;99.90;;;;;;5073668;28;19915;-79
2022/10/13 07:24:29;;;;;;;;;;;15.20;99.90;;;;;;5074420;28;19908;-79
2022/10/13 07:26:55;;;;;;;;;;;15.20;99.90;;;;;;5075526;28;19915;-80
2022/10/13 07:29:20;;;;;;;;;;;15.20;99.90;;;;;;5075228;28;19924;-79
2022/10/13 07:31:46;;;;;;;;;;;15.20;99.90;;;;;;5075605;28;20318;-77
2022/10/13 07:34:12;;;;;;;;;;;15.30;99.90;;;;;;5075066;28;19954;-79
2022/10/13 07:36:40;;;;;;;;;;;15.30;99.90;;;;;;5074794;28;19908;-77
2022/10/13 07:39:06;;;;;;;;;;;15.30;99.90;;;;;;5075127;28;19934;-76
2022/10/13 07:41:32;;;;;;;;;;;15.30;99.90;;;;;;5075070;28;19904;-79
2022/10/13 07:43:57;;;;;;;;;;;15.40;99.90;;;;;;5074409;28;19915;-79
2022/10/13 07:46:24;;;;;;;;;;;15.40;99.90;;;;;;5075239;28;19927;-75
2022/10/13 07:48:51;;;;;;;;;;;15.40;99.90;;;;;;5075237;28;19904;-77
2022/10/13 07:51:16;;;;;;;;;;;15.40;99.90;;;;;;5044912;28;19936;-77
2022/10/13 07:53:42;;;;;;;;;;;15.50;99.90;;;;;;5037039;28;20372;-79
2022/10/13 07:56:09;;;;;;;;;;;15.50;99.90;;;;;;5056582;28;19951;-76
2022/10/13 07:58:35;;;;;;;;;;;15.50;99.90;;;;;;5074575;28;20346;-75
2022/10/13 08:01:01;;;;;;;;;;;15.60;99.90;;;;;;5074690;28;19947;-78
2022/10/13 08:03:27;;;;;;;;;;;15.60;99.90;;;;;;5074180;28;19955;-80
2022/10/13 08:05:53;;;;;;;;;;;15.60;99.90;;;;;;5074886;28;19904;-75
2022/10/13 08:08:19;;;;;;;;;;;15.60;99.90;;;;;;5056019;28;20323;-78
2022/10/13 08:10:45;;;;;;;;;;;15.50;99.90;;;;;;5074150;28;20003;-79
2022/10/13 08:13:11;;;;;;;;;;;15.50;99.90;;;;;;5074200;28;19943;-78
2022/10/13 08:15:40;;;;;;;;;;;15.50;99.90;;;;;;5075166;28;19994;-78
2022/10/13 08:18:05;;;;;;;;;;;15.50;99.90;;;;;;5074353;28;20398;-75
2022/10/13 08:20:31;;;;;;;;;;;15.50;99.90;;;;;;5074433;28;19991;-77
2022/10/13 08:22:56;;;;;;;;;;;15.50;99.90;;;;;;5073648;28;19908;-78
2022/10/13 08:25:22;;;;;;;;;;;15.50;99.90;;;;;;5075098;28;19904;-79
2022/10/13 08:27:47;;;;;;;;;;;15.50;99.90;;;;;;5074153;28;19905;-75
2022/10/13 08:30:14;;;;;;;;;;;15.50;99.90;;;;;;5055849;28;19922;-78
2022/10/13 08:32:40;;;;;;;;;;;15.50;99.90;;;;;;5074372;28;19912;-77
2022/10/13 08:35:06;;;;;;;;;;;15.50;99.90;;;;;;5058324;28;19954;-75
2022/10/13 08:37:31;;;;;;;;;;;15.50;99.90;;;;;;5079481;28;19916;-75
2022/10/13 08:39:56;;;;;;;;;;;15.50;99.90;;;;;;5074046;28;19904;-75
2022/10/13 08:42:22;;;;;;;;;;;15.50;99.90;;;;;;5052421;28;20360;-75
2022/10/13 08:45:14;;;;;;;;;;;15.50;99.90;;;;;;5060868;28;19940;-76
2022/10/13 08:47:45;;;;;;;;;;;15.50;99.90;;;;;;5049890;28;19939;-76
2022/10/13 08:50:13;;;;;;;;;;;15.50;99.90;;;;;;5052620;28;19905;-74
2022/10/13 08:52:45;;;;;;;;;;;15.60;99.90;;;;;;5054470;28;19961;-74
2022/10/13 08:55:22;;;;;;;;;;;15.60;99.90;;;;;;5053727;28;20296;-78
2022/10/13 08:57:48;;;;;;;;;;;15.60;99.90;;;;;;5053357;28;19909;-75
2022/10/13 09:00:13;;;;;;;;;;;15.70;99.90;;;;;;5053193;28;19928;-82
2022/10/13 09:02:41;;;;;;;;;;;15.70;99.90;;;;;;5069710;28;19927;-79
2022/10/13 09:05:11;;;;;;;;;;;15.80;99.90;;;;;;5076155;28;19912;-78
2022/10/13 09:07:38;;;;;;;;;;;15.90;99.90;;;;;;5073233;28;20354;-80
2022/10/13 09:10:03;;;;;;;;;;;15.90;99.90;;;;;;5073511;28;19915;-79
2022/10/13 09:12:30;;;;;;;;;;;15.90;99.90;;;;;;5073017;28;19904;-76
2022/10/13 09:15:00;;;;;;;;;;;15.90;99.90;;;;;;5073513;28;19954;-76
2022/10/13 09:17:26;;;;;;;;;;;16.00;99.90;;;;;;5060560;28;19999;-78
2022/10/13 09:20:03;;;;;;;;;;;16.00;99.90;;;;;;5075125;28;20348;-76
2022/10/13 09:22:30;;;;;;;;;;;16.00;99.90;;;;;;5057943;28;19909;-78
2022/10/13 09:25:06;;;;;;;;;;;16.00;99.90;;;;;;5057682;28;19954;-76
2022/10/13 09:27:50;;;;;;;;;;;16.00;99.90;;;;;;5057993;28;19962;-79
2022/10/13 09:30:37;;;;;;;;;;;16.00;99.90;;;;;;5057072;28;19925;-79
2022/10/13 09:33:10;;;;;;;;;;;16.00;99.90;;;;;;5058966;28;19909;-76
2022/10/13 09:35:36;;;;;;;;;;;16.00;99.90;;;;;;5076933;28;19931;-79
2022/10/13 09:38:05;;;;;;;;;;;16.00;99.90;;;;;;5077640;28;20361;-78
2022/10/13 09:40:32;;;;;;;;;;;16.10;99.90;;;;;;5059397;28;20372;-77
2022/10/13 09:42:58;;;;;;;;;;;16.10;99.90;;;;;;5077916;28;19912;-78
2022/10/13 09:45:25;;;;;;;;;;;16.10;99.90;;;;;;5059424;28;19904;-79
2022/10/13 09:47:52;;;;;;;;;;;16.10;99.90;;;;;;5079266;28;19908;-78
2022/10/13 09:50:19;;;;;;;;;;;16.10;99.90;;;;;;5059239;28;19908;-77
2022/10/13 09:52:45;;;;;;;;;;;16.10;99.90;;;;;;5076591;28;19909;-79
2022/10/13 09:55:31;;;;;;;;;;;16.20;99.90;;;;;;5078144;28;20394;-81
2022/10/13 09:58:01;;;;;;;;;;;16.20;99.90;;;;;;5077068;28;20340;-80
2022/10/13 10:00:27;;;;;;;;;;;16.20;99.90;;;;;;5077185;28;20372;-82
2022/10/13 10:02:58;;;;;;;;;;;16.20;99.90;;;;;;5062156;28;19908;-76
2022/10/13 10:05:33;;;;;;;;;;;16.20;99.90;;;;;;5076892;28;19904;-79
2022/10/13 10:08:05;;;;;;;;;;;16.30;99.90;;;;;;5077426;28;19990;-77
2022/10/13 10:10:33;;;;;;;;;;;16.30;99.90;;;;;;5076575;28;19920;-79
2022/10/13 10:12:59;;;;;;;;;;;16.30;99.90;;;;;;5076601;28;19926;-78
2022/10/13 10:15:28;;;;;;;;;;;16.40;99.90;;;;;;5082329;28;20435;-77
2022/10/13 10:17:56;;;;;;;;;;;16.40;99.90;;;;;;5097269;28;19904;-76
2022/10/13 10:20:31;;;;;;;;;;;16.40;99.90;;;;;;5096808;28;19908;-79
2022/10/13 10:23:02;;;;;;;;;;;16.40;99.90;;;;;;5097170;28;19997;-76
2022/10/13 10:25:34;;;;;;;;;;;16.40;99.90;;;;;;5096738;28;19911;-79
2022/10/13 10:28:00;;;;;;;;;;;16.40;99.90;;;;;;5078551;28;20349;-77
2022/10/13 10:30:28;;;;;;;;;;;16.40;99.90;;;;;;5095536;28;19923;-78
2022/10/13 10:33:15;;;;;;;;;;;16.40;99.90;;;;;;5096181;28;19911;-76
2022/10/13 10:35:46;;;;;;;;;;;16.50;99.90;;;;;;5096954;28;19927;-77
2022/10/13 10:38:30;;;;;;;;;;;16.60;99.90;;;;;;5096753;28;19908;-78
2022/10/13 10:40:59;;;;;;;;;;;16.60;99.90;;;;;;5096821;28;19904;-76
2022/10/13 10:43:30;;;;;;;;;;;16.60;99.90;;;;;;5096428;28;19949;-76
2022/10/13 10:45:57;;;;;;;;;;;16.60;99.90;;;;;;5096652;28;19911;-78
2022/10/13 10:48:25;;;;;;;;;;;16.60;99.90;;;;;;5096385;28;19990;-78
2022/10/13 10:50:51;;;;;;;;;;;16.50;99.90;;;;;;5096273;28;19915;-78
2022/10/13 10:53:17;;;;;;;;;;;16.50;99.90;;;;;;5096231;28;19904;-77
2022/10/13 10:55:47;;;;;;;;;;;16.50;99.90;;;;;;5078000;28;19911;-77
2022/10/13 10:58:22;;;;;;;;;;;16.50;99.90;;;;;;5096961;28;19911;-76
2022/10/13 11:00:52;;;;;;;;;;;16.50;99.90;;;;;;5096103;28;19911;-77
2022/10/13 11:03:32;;;;;;;;;;;16.50;99.90;;;;;;5097096;28;19904;-77
2022/10/13 11:06:00;;;;;;;;;;;16.50;99.90;;;;;;5096178;28;20283;-76
2022/10/13 11:08:37;;;;;;;;;;;16.50;99.90;;;;;;5096635;28;19910;-76
2022/10/13 11:11:21;;;;;;;;;;;16.40;99.90;;;;;;5077399;28;20261;-77
2022/10/13 11:13:51;;;;;;;;;;;16.40;99.90;;;;;;5077780;28;19904;-76
2022/10/13 11:16:27;;;;;;;;;;;16.40;99.90;;;;;;5095891;28;19904;-76
2022/10/13 11:18:54;;;;;;;;;;;16.30;99.90;;;;;;5095817;28;19911;-77
2022/10/13 11:21:20;;;;;;;;;;;16.30;99.90;;;;;;5095691;28;19989;-76
2022/10/13 11:23:47;;;;;;;;;;;16.30;99.90;;;;;;5095955;28;20275;-78
2022/10/13 11:26:26;;;;;;;;;;;16.40;99.90;;;;;;5095521;28;19991;-76
2022/10/13 11:28:51;;;;;;;;;;;16.40;99.90;;;;;;5095335;28;19965;-78
2022/10/13 11:31:25;;;;;;;;;;;16.50;99.90;;;;;;5077059;28;19912;-77
2022/10/13 11:33:50;;;;;;;;;;;16.60;99.90;;;;;;5077364;28;19953;-77
2022/10/13 11:36:36;;;;;;;;;;;16.80;99.90;;;;;;5096029;28;19908;-76
2022/10/13 11:39:05;;;;;;;;;;;17.00;99.90;;;;;;5077255;28;19911;-76
2022/10/13 11:41:35;;;;;;;;;;;17.10;99.90;;;;;;5095389;28;20280;-76
2022/10/13 11:44:16;;;;;;;;;;;17.00;99.90;;;;;;5094380;28;19904;-78
2022/10/13 11:46:58;;;;;;;;;;;17.10;99.90;;;;;;5095303;28;19907;-77
2022/10/13 11:49:34;;;;;;;;;;;17.20;99.90;;;;;;5095853;28;19947;-76
2022/10/13 11:52:23;;;;;;;;;;;17.30;99.90;;;;;;5076490;28;20291;-76
2022/10/13 11:54:53;;;;;;;;;;;17.40;99.90;;;;;;5095317;28;20284;-77
2022/10/13 11:57:20;;;;;;;;;;;17.50;99.90;;;;;;5094899;28;19955;-77
2022/10/13 11:59:47;;;;;;;;;;;17.50;99.90;;;;;;5094878;28;19904;-77
2022/10/13 12:02:15;;;;;;;;;;;17.60;99.90;;;;;;5094954;28;19904;-77
2022/10/13 12:04:41;;;;;;;;;;;17.50;99.90;;;;;;5076648;28;19911;-76
2022/10/13 12:07:08;;;;;;;;;;;17.40;99.90;;;;;;5094889;28;19904;-76
2022/10/13 12:09:38;;;;;;;;;;;17.30;99.90;;;;;;5094769;28;20318;-75
2022/10/13 12:12:14;;;;;;;;;;;17.20;99.90;;;;;;5094614;28;19908;-77
2022/10/13 12:14:44;;;;;;;;;;;17.20;99.90;;;;;;5092077;28;19926;-77
2022/10/13 12:17:25;;;;;;;;;;;17.20;99.90;;;;;;5073480;28;19915;-77
2022/10/13 12:19:58;;;;;;;;;;;17.10;99.90;;;;;;5044312;28;19912;-77
2022/10/13 12:22:24;;;;;;;;;;;17.20;99.90;;;;;;5073615;28;19908;-75
2022/10/13 12:25:01;;;;;;;;;;;17.30;99.90;;;;;;5072697;28;19961;-75
2022/10/13 12:27:28;;;;;;;;;;;17.30;99.90;;;;;;5055490;28;19904;-75
2022/10/13 12:29:54;;;;;;;;;;;17.30;99.90;;;;;;5071280;28;19916;-81
2022/10/13 12:32:20;;;;;;;;;;;17.30;99.90;;;;;;5088194;28;19916;-80
2022/10/13 12:34:46;;;;;;;;;;;17.20;99.90;;;;;;5078880;28;20431;-80
2022/10/13 12:37:24;;;;;;;;;;;17.10;99.90;;;;;;5056497;28;19932;-78
2022/10/13 12:39:50;;;;;;;;;;;17.10;99.90;;;;;;5074788;28;19908;-78
2022/10/13 12:42:16;;;;;;;;;;;17.20;99.90;;;;;;5056130;28;19969;-77
2022/10/13 12:44:42;;;;;;;;;;;17.20;99.90;;;;;;5054289;28;19916;-78
2022/10/13 12:47:27;;;;;;;;;;;17.20;99.90;;;;;;5066221;28;20381;-80
2022/10/13 12:50:13;;;;;;;;;;;17.30;99.90;;;;;;5069128;28;19908;-80
2022/10/13 12:52:38;;;;;;;;;;;17.30;99.90;;;;;;5073846;28;19931;-83
2022/10/13 12:55:12;;;;;;;;;;;17.30;99.90;;;;;;5071477;28;20368;-77
2022/10/13 12:57:39;;;;;;;;;;;17.30;99.90;;;;;;5063285;28;20361;-78
2022/10/13 13:00:19;;;;;;;;;;;17.30;99.90;;;;;;5069813;28;19991;-75
2022/10/13 13:02:54;;;;;;;;;;;17.40;99.90;;;;;;5086913;28;20461;-79
2022/10/13 13:05:33;;;;;;;;;;;17.40;99.90;;;;;;5093690;28;19908;-78
2022/10/13 13:07:59;;;;;;;;;;;17.40;99.90;;;;;;5094463;28;19994;-77
2022/10/13 13:10:24;;;;;;;;;;;17.50;99.90;;;;;;5070161;28;19995;-77
2022/10/13 13:12:51;;;;;;;;;;;17.60;99.90;;;;;;5073786;28;19904;-80
2022/10/13 13:15:36;;;;;;;;;;;17.70;99.90;;;;;;5073429;28;20486;-79
2022/10/13 13:18:20;;;;;;;;;;;17.80;99.90;;;;;;5073894;28;19931;-78
2022/10/13 13:20:45;;;;;;;;;;;17.90;99.90;;;;;;5052387;28;20360;-77
2022/10/13 13:23:12;;;;;;;;;;;17.80;99.90;;;;;;5054055;28;20019;-78
2022/10/13 13:25:37;;;;;;;;;;;17.80;99.90;;;;;;5071856;28;19946;-76
2022/10/13 13:28:09;;;;;;;;;;;17.90;99.90;;;;;;5093100;28;19984;-78
2022/10/13 13:30:34;;;;;;;;;;;18.00;99.90;;;;;;5084199;28;20461;-81
2022/10/13 13:33:00;;;;;;;;;;;18.10;99.90;;;;;;5072885;28;19916;-79
2022/10/13 13:35:25;;;;;;;;;;;18.10;99.90;;;;;;5074017;28;19905;-82
2022/10/13 13:37:51;;;;;;;;;;;18.20;99.90;;;;;;5073838;28;20000;-81
2022/10/13 13:40:18;;;;;;;;;;;18.20;99.90;;;;;;5073523;28;19904;-80
2022/10/13 13:42:44;;;;;;;;;;;18.20;99.90;;;;;;5072171;28;19908;-82
2022/10/13 13:45:17;;;;;;;;;;;18.30;99.90;;;;;;5073273;28;20292;-81
2022/10/13 13:47:43;;;;;;;;;;;18.40;99.90;;;;;;5073784;28;20003;-78
2022/10/13 13:50:16;;;;;;;;;;;18.50;99.90;;;;;;5073006;28;19916;-79
2022/10/13 13:52:42;;;;;;;;;;;18.50;99.90;;;;;;5073494;28;20019;-79
2022/10/13 13:55:08;;;;;;;;;;;18.60;99.90;;;;;;5072981;28;20396;-79
2022/10/13 13:57:33;;;;;;;;;;;18.60;99.90;;;;;;5073622;28;19938;-80
2022/10/13 13:59:59;;;;;;;;;;;18.50;99.90;;;;;;5073721;28;19904;-80
2022/10/13 14:02:24;;;;;;;;;;;18.50;99.90;;;;;;5073604;28;19904;-79
2022/10/13 14:04:49;;;;;;;;;;;18.50;99.90;;;;;;5055367;28;19996;-81
2022/10/13 14:07:15;;;;;;;;;;;18.50;99.90;;;;;;5057497;28;20400;-81
2022/10/13 14:09:41;;;;;;;;;;;18.60;99.90;;;;;;5076240;28;19953;-81
2022/10/13 14:12:06;;;;;;;;;;;18.60;99.90;;;;;;5076670;28;19908;-77
2022/10/13 14:14:32;;;;;;;;;;;18.60;99.90;;;;;;5076872;28;19927;-74
2022/10/13 14:16:58;;;;;;;;;;;18.60;99.90;;;;;;5076203;28;20031;-77
2022/10/13 14:19:24;;;;;;;;;;;18.60;99.90;;;;;;5076902;28;20066;-76
2022/10/13 14:21:49;;;;;;;;;;;18.50;99.90;;;;;;5077069;28;19904;-77